createdAt,value
2022-08-11T00:20:58.786Z,81.06
2022-08-11T00:22:04.038Z,83.64
2022-08-11T00:22:59.789Z,85.63
2022-08-11T00:23:58.759Z,87.38
2022-08-11T00:25:02.339Z,89.42
2022-08-11T00:25:58.734Z,90.37
2022-08-11T00:26:58.726Z,91.62
2022-08-11T00:27:58.718Z,92.62
2022-08-11T00:28:58.705Z,92.57
2022-08-11T00:29:58.698Z,93.67
2022-08-11T00:30:58.690Z,92.51
2022-08-11T00:31:58.679Z,93.12
2022-08-11T00:32:58.668Z,93.46
2022-08-11T00:33:58.658Z,94.06
2022-08-11T00:35:52.087Z,94.37
2022-08-11T00:35:59.654Z,94.72
2022-08-11T00:36:58.625Z,94.31
2022-08-11T00:37:58.613Z,94.41
2022-08-11T00:38:58.603Z,94.37
2022-08-11T00:39:58.661Z,94.61
2022-08-11T00:40:58.585Z,94.96
2022-08-11T00:41:58.576Z,95.12
2022-08-11T00:42:58.563Z,95.36
2022-08-11T00:43:58.555Z,95.56
2022-08-11T00:44:58.543Z,95.67
2022-08-11T00:45:58.532Z,95.67
2022-08-11T00:46:58.525Z,95.56
2022-08-11T00:48:00.288Z,95.77
2022-08-11T00:48:58.500Z,95.67
2022-08-11T00:49:58.489Z,95.71
2022-08-11T00:50:58.479Z,95.47
2022-08-11T00:52:05.825Z,95.61
2022-08-11T00:52:59.480Z,95.41
2022-08-11T00:53:58.448Z,95.11
2022-08-11T00:54:58.441Z,94.80
2022-08-11T00:55:58.426Z,94.60
2022-08-11T00:56:58.418Z,94.20
2022-08-11T00:57:58.406Z,94.00
2022-08-11T00:58:58.395Z,93.79
2022-08-11T00:59:58.384Z,93.70
2022-08-11T01:00:58.444Z,93.35
2022-08-11T01:01:58.366Z,93.55
2022-08-11T01:02:58.351Z,93.59
2022-08-11T01:03:58.343Z,93.75
2022-08-11T01:04:58.333Z,93.95
2022-08-11T01:05:58.323Z,94.20
2022-08-11T01:06:58.309Z,94.30
2022-08-11T01:08:01.868Z,94.20
2022-08-11T01:08:58.289Z,95.00
2022-08-11T01:09:58.329Z,95.91
2022-08-11T01:10:58.273Z,96.21
2022-08-11T01:11:58.258Z,96.52
2022-08-11T01:12:58.249Z,97.02
2022-08-11T01:13:58.238Z,97.17
2022-08-11T01:14:58.230Z,97.22
2022-08-11T01:15:58.227Z,97.32
2022-08-11T01:16:58.210Z,97.32
2022-08-11T01:17:58.204Z,97.12
2022-08-11T01:18:58.193Z,97.12
2022-08-11T01:20:38.592Z,96.72
2022-08-11T01:20:59.191Z,96.21
2022-08-11T01:21:58.161Z,96.52
2022-08-11T01:22:58.152Z,95.81
2022-08-11T01:23:58.160Z,95.71
2022-08-11T01:24:58.132Z,95.56
2022-08-11T01:25:58.122Z,95.25
2022-08-11T01:26:58.118Z,95.31
2022-08-11T01:27:58.103Z,94.80
2022-08-11T01:28:58.094Z,94.90
2022-08-11T01:29:58.080Z,94.50
2022-08-11T01:30:58.069Z,94.30
2022-08-11T01:31:58.061Z,94.06
2022-08-11T01:32:58.049Z,93.90
2022-08-11T01:33:58.042Z,94.06
2022-08-11T01:34:58.029Z,94.06
2022-08-11T01:35:58.019Z,94.40
2022-08-11T01:36:58.012Z,94.56
2022-08-11T01:37:58.002Z,94.86
2022-08-11T01:38:57.989Z,95.31
2022-08-11T01:39:58.032Z,95.41
2022-08-11T01:40:57.968Z,95.11
2022-08-11T01:41:57.959Z,95.15
2022-08-11T01:42:57.946Z,95.15
2022-08-11T01:43:57.936Z,94.80
2022-08-11T01:44:57.929Z,94.70
2022-08-11T01:45:57.921Z,95.00
2022-08-11T01:46:57.909Z,94.40
2022-08-11T01:47:57.898Z,94.30
2022-08-11T01:48:57.885Z,94.00
2022-08-11T01:50:09.831Z,93.90
2022-08-11T01:50:58.891Z,93.19
2022-08-11T01:51:57.861Z,92.79
2022-08-11T01:52:57.848Z,92.38
2022-08-11T01:53:57.835Z,92.38
2022-08-11T01:54:57.825Z,92.14
2022-08-11T01:55:57.818Z,91.44
2022-08-11T01:56:57.808Z,91.74
2022-08-11T01:57:57.794Z,91.64
2022-08-11T01:58:57.787Z,90.99
2022-08-11T01:59:57.775Z,90.73
2022-08-11T02:00:57.850Z,90.58
2022-08-11T02:01:57.758Z,91.59
2022-08-11T02:02:57.746Z,92.44
2022-08-11T02:03:57.737Z,93.25
2022-08-11T02:04:57.724Z,93.85
2022-08-11T02:05:57.719Z,94.00
2022-08-11T02:06:57.708Z,93.95
2022-08-11T02:07:57.694Z,94.20
2022-08-11T02:08:57.693Z,94.40
2022-08-11T02:09:57.674Z,94.54
2022-08-11T02:10:57.673Z,94.10
2022-08-11T02:11:57.655Z,94.50
2022-08-11T02:12:57.644Z,94.90
2022-08-11T02:13:57.636Z,94.54
2022-08-11T02:15:04.799Z,94.00
2022-08-11T02:15:58.636Z,93.79
2022-08-11T02:16:57.605Z,93.03
2022-08-11T02:17:57.597Z,91.48
2022-08-11T02:18:57.587Z,91.64
2022-08-11T02:19:57.577Z,91.24
2022-08-11T02:21:57.559Z,92.34
2022-08-11T02:22:57.545Z,93.05
2022-08-11T02:23:59.507Z,93.55
2022-08-11T02:24:58.548Z,94.26
2022-08-11T02:25:57.512Z,94.70
2022-08-11T02:26:57.505Z,94.90
2022-08-11T02:27:57.492Z,95.25
2022-08-11T02:28:57.484Z,95.25
2022-08-11T02:29:57.470Z,95.66
2022-08-11T02:30:57.464Z,95.80
2022-08-11T02:32:15.512Z,95.95
2022-08-11T02:32:58.464Z,96.26
2022-08-11T02:33:57.431Z,96.26
2022-08-11T02:34:59.768Z,96.36
2022-08-11T02:35:57.413Z,96.56
2022-08-11T02:36:57.409Z,96.77
2022-08-11T02:37:57.393Z,96.86
2022-08-11T02:38:57.382Z,96.66
2022-08-11T02:39:57.372Z,96.36
2022-08-11T02:40:57.363Z,96.06
2022-08-11T02:41:57.352Z,95.81
2022-08-11T02:42:57.343Z,95.71
2022-08-11T02:43:57.330Z,95.75
2022-08-11T02:44:57.323Z,95.86
2022-08-11T02:45:57.312Z,96.01
2022-08-11T02:46:57.299Z,96.06
2022-08-11T02:47:57.294Z,96.16
2022-08-11T02:48:57.280Z,95.86
2022-08-11T02:50:06.348Z,95.41
2022-08-11T02:50:58.280Z,95.25
2022-08-11T02:51:57.249Z,95.15
2022-08-11T02:52:57.240Z,94.70
2022-08-11T02:53:58.282Z,93.94
2022-08-11T02:56:57.197Z,93.49
2022-08-11T03:40:56.756Z,93.12
2022-08-11T03:42:03.673Z,92.27
2022-08-11T03:42:57.760Z,91.87
2022-08-11T03:43:58.246Z,91.26
2022-08-11T03:49:56.667Z,92.83
2022-08-11T03:50:56.662Z,93.68
2022-08-11T03:53:56.629Z,94.03
2022-08-11T03:55:56.606Z,93.12
2022-08-11T03:56:56.599Z,92.68
2022-08-11T03:57:56.588Z,92.68
2022-08-11T03:58:56.576Z,91.97
2022-08-11T03:59:56.568Z,91.36
2022-08-11T04:00:56.559Z,91.06
2022-08-11T04:01:56.606Z,91.52
2022-08-11T04:02:56.537Z,92.23
2022-08-11T04:03:56.532Z,92.83
2022-08-11T04:04:56.522Z,92.57
2022-08-11T04:05:56.511Z,91.93
2022-08-11T04:06:56.500Z,91.87
2022-08-11T04:07:56.489Z,91.87
2022-08-11T04:08:56.481Z,91.57
2022-08-11T04:09:56.472Z,92.02
2022-08-11T04:10:57.469Z,92.47
2022-08-11T04:11:56.449Z,92.37
2022-08-11T04:12:56.439Z,91.36
2022-08-11T04:13:56.434Z,90.01
2022-08-11T04:14:56.421Z,89.61
2022-08-11T04:15:56.413Z,88.86
2022-08-11T04:16:56.405Z,90.21
2022-08-11T04:17:56.389Z,90.77
2022-08-11T04:18:56.381Z,90.37
2022-08-11T04:19:56.370Z,89.86
2022-08-11T04:20:56.362Z,89.97
2022-08-11T04:21:56.353Z,90.06
2022-08-11T04:22:56.344Z,89.97
2022-08-11T04:24:33.097Z,89.66
2022-08-11T04:24:57.348Z,88.65
2022-08-11T04:25:58.522Z,89.63
2022-08-11T04:26:56.316Z,89.42
2022-08-11T04:27:56.295Z,89.97
2022-08-11T04:28:56.285Z,90.13
2022-08-11T04:30:03.879Z,90.17
2022-08-11T04:30:57.286Z,90.11
2022-08-11T04:31:56.260Z,90.01
2022-08-11T04:32:56.242Z,89.30
2022-08-11T04:33:56.608Z,88.76
2022-08-11T04:34:56.224Z,87.95
2022-08-11T04:35:56.212Z,86.34
2022-08-11T04:36:56.204Z,84.53
2022-08-11T04:37:56.194Z,83.62
2022-08-11T04:38:56.183Z,84.99
2022-08-11T04:39:56.176Z,84.39
2022-08-11T04:40:56.164Z,84.08
2022-08-11T04:41:56.153Z,82.64
2022-08-11T04:42:56.143Z,81.73
2022-08-11T04:44:02.129Z,82.64
2022-08-11T04:44:57.148Z,82.33
2022-08-11T04:45:56.115Z,82.70
2022-08-11T04:46:56.102Z,82.59
2022-08-11T04:48:03.665Z,83.54
2022-08-11T04:48:57.112Z,82.03
2022-08-11T04:49:56.076Z,81.23
2022-08-11T04:51:00.698Z,81.69
2022-08-11T04:51:57.074Z,81.59
2022-08-11T04:52:56.040Z,81.63
2022-08-11T04:53:56.030Z,82.09
2022-08-11T04:54:56.021Z,79.98
2022-08-11T04:55:56.008Z,79.27
2022-08-11T04:56:56.001Z,78.63
2022-08-11T04:57:55.990Z,80.14
2022-08-11T04:58:55.980Z,80.95
2022-08-11T04:59:55.969Z,78.94
2022-08-11T05:00:56.658Z,79.44
2022-08-11T05:01:56.012Z,82.56
2022-08-11T05:02:55.938Z,81.49
2022-08-11T05:03:55.928Z,79.24
2022-08-11T05:04:55.917Z,82.65
2022-08-11T05:05:56.961Z,83.40
2022-08-11T05:06:55.895Z,83.96
2022-08-11T05:07:55.886Z,84.36
2022-08-11T05:08:55.869Z,84.16
2022-08-11T05:09:55.866Z,83.80
2022-08-11T05:10:55.849Z,83.36
2022-08-11T05:11:57.885Z,83.32
2022-08-11T05:12:55.832Z,82.56
2022-08-11T05:13:55.828Z,82.76
2022-08-11T05:14:55.809Z,82.42
2022-08-11T05:15:55.798Z,82.42
2022-08-11T05:16:55.788Z,82.01
2022-08-11T05:17:55.781Z,81.31
2022-08-11T05:18:55.769Z,81.41
2022-08-11T05:19:55.756Z,81.11
2022-08-11T05:20:55.746Z,82.05
2022-08-11T05:21:57.259Z,82.22
2022-08-11T05:22:55.726Z,82.25
2022-08-11T05:23:55.715Z,81.75
2022-08-11T05:24:55.705Z,81.21
2022-08-11T05:26:47.372Z,80.91
2022-08-11T05:26:55.687Z,80.81
2022-08-11T05:27:55.671Z,81.41
2022-08-11T05:28:55.667Z,82.31
2022-08-11T05:29:55.653Z,81.81
2022-08-11T05:30:55.700Z,80.60
2022-08-11T05:31:55.635Z,79.80
2022-08-11T05:33:00.934Z,80.31
2022-08-11T05:33:55.615Z,80.07
2022-08-11T05:34:55.605Z,80.21
2022-08-11T05:36:00.965Z,81.11
2022-08-11T05:37:17.186Z,79.66
2022-08-11T05:37:56.589Z,78.86
2022-08-11T05:38:55.563Z,79.57
2022-08-11T05:39:55.666Z,80.27
2022-08-11T05:41:00.037Z,80.83
2022-08-11T05:41:55.535Z,81.03
2022-08-11T05:42:55.522Z,81.07
2022-08-11T05:44:19.869Z,80.43
2022-08-11T05:44:56.526Z,80.13
2022-08-11T05:46:02.985Z,78.49
2022-08-11T05:46:56.500Z,78.49
2022-08-11T05:47:55.470Z,79.79
2022-08-11T05:48:55.476Z,79.59
2022-08-11T05:49:55.455Z,78.75
2022-08-11T05:50:55.441Z,78.58
2022-08-11T05:51:57.295Z,78.55
2022-08-11T05:52:56.674Z,78.65
2022-08-11T05:53:55.411Z,78.11
2022-08-11T05:54:55.404Z,78.41
2022-08-11T05:56:02.822Z,79.33
2022-08-11T05:56:56.402Z,78.13
2022-08-11T05:57:55.370Z,77.03
2022-08-11T05:58:55.360Z,77.13
2022-08-11T05:59:55.350Z,77.57
2022-08-11T06:00:55.338Z,77.97
2022-08-11T06:01:55.362Z,78.64
2022-08-11T06:02:55.558Z,78.17
2022-08-11T06:03:58.124Z,78.07
2022-08-11T06:04:55.300Z,78.07
2022-08-11T06:05:55.293Z,78.97
2022-08-11T06:06:55.282Z,78.54
2022-08-11T06:07:55.275Z,78.03
2022-08-11T06:08:55.259Z,77.63
2022-08-11T06:09:55.253Z,77.94
2022-08-11T06:10:55.242Z,77.74
2022-08-11T06:11:55.233Z,77.90
2022-08-11T06:12:55.221Z,77.60
2022-08-11T06:13:55.213Z,76.66
2022-08-11T06:14:55.211Z,77.09
2022-08-11T06:15:55.194Z,76.70
2022-08-11T06:16:55.180Z,76.50
2022-08-11T06:17:55.172Z,76.90
2022-08-11T06:18:55.161Z,78.00
2022-08-11T06:19:55.149Z,78.66
2022-08-11T06:20:56.163Z,77.63
2022-08-11T06:21:55.136Z,77.76
2022-08-11T06:22:55.137Z,77.50
2022-08-11T06:23:55.109Z,77.80
2022-08-11T06:24:55.098Z,77.94
2022-08-11T06:25:56.394Z,77.60
2022-08-11T06:27:11.952Z,77.44
2022-08-11T06:27:55.069Z,77.63
2022-08-11T06:28:55.055Z,77.00
2022-08-11T06:29:55.804Z,77.26
2022-08-11T06:30:55.040Z,77.22
2022-08-11T06:31:55.028Z,76.36
2022-08-11T06:32:55.015Z,77.02
2022-08-11T06:33:55.010Z,77.19
2022-08-11T06:34:54.993Z,76.29
2022-08-11T06:35:54.988Z,77.13
2022-08-11T06:36:54.977Z,76.83
2022-08-11T06:37:59.118Z,76.02
2022-08-11T06:38:54.953Z,76.29
2022-08-11T06:39:55.027Z,75.62
2022-08-11T06:40:54.935Z,75.59
2022-08-11T06:41:54.927Z,74.62
2022-08-11T06:42:54.911Z,74.19
2022-08-11T06:43:56.151Z,75.59
2022-08-11T06:44:54.893Z,74.68
2022-08-11T06:45:54.884Z,74.99
2022-08-11T06:46:54.875Z,76.12
2022-08-11T06:47:54.861Z,76.22
2022-08-11T06:48:54.853Z,76.52
2022-08-11T06:49:54.845Z,75.68
2022-08-11T06:50:54.831Z,75.32
2022-08-11T06:51:54.824Z,74.38
2022-08-11T06:52:54.814Z,73.69
2022-08-11T06:54:04.066Z,73.99
2022-08-11T06:54:55.813Z,74.25
2022-08-11T06:55:58.251Z,73.05
2022-08-11T06:57:12.453Z,72.58
2022-08-11T06:57:54.765Z,73.22
2022-08-11T06:58:54.754Z,72.76
2022-08-11T06:59:54.742Z,73.15
2022-08-11T07:00:54.735Z,72.82
2022-08-11T07:01:54.835Z,72.52
2022-08-11T07:02:54.714Z,72.52
2022-08-11T07:03:54.710Z,72.22
2022-08-11T07:04:54.694Z,72.32
2022-08-11T07:05:54.684Z,72.88
2022-08-11T07:06:54.672Z,70.48
2022-08-11T07:07:54.664Z,70.09
2022-08-11T07:08:54.653Z,68.53
2022-08-11T07:09:54.643Z,70.25
2022-08-11T07:10:54.636Z,69.12
2022-08-11T07:11:54.632Z,69.22
2022-08-11T07:12:54.613Z,67.73
2022-08-11T07:13:54.607Z,67.10
2022-08-11T07:15:00.261Z,65.57
2022-08-11T07:16:11.301Z,65.00
2022-08-11T07:16:55.596Z,63.87
2022-08-11T07:17:54.564Z,62.78
2022-08-11T07:18:54.556Z,62.15
2022-08-11T07:19:56.784Z,62.45
2022-08-11T07:20:58.602Z,61.52
2022-08-11T07:22:03.012Z,60.23
2022-08-11T07:22:55.533Z,60.63
2022-08-11T07:23:54.504Z,59.83
2022-08-11T07:24:59.854Z,59.50
2022-08-11T07:25:55.505Z,58.64
2022-08-11T07:26:54.473Z,58.61
2022-08-11T07:27:54.465Z,59.50
2022-08-11T07:28:54.456Z,59.00
2022-08-11T07:29:54.444Z,60.10
2022-08-11T07:30:54.440Z,60.50
2022-08-11T07:31:54.427Z,59.03
2022-08-11T07:32:54.415Z,59.73
2022-08-11T07:34:05.869Z,62.32
2022-08-11T07:34:54.399Z,61.75
2022-08-11T07:35:54.384Z,59.26
2022-08-11T07:36:54.380Z,61.25
2022-08-11T07:38:01.647Z,58.44
2022-08-11T07:38:55.378Z,57.31
2022-08-11T07:39:54.447Z,57.78
2022-08-11T07:40:54.337Z,58.05
2022-08-11T07:41:54.328Z,55.47
2022-08-11T07:42:54.320Z,56.07
2022-08-11T07:43:54.310Z,55.87
2022-08-11T07:44:54.301Z,56.36
2022-08-11T07:45:54.293Z,56.24
2022-08-11T07:46:54.280Z,56.83
2022-08-11T07:47:54.266Z,56.64
2022-08-11T07:48:54.256Z,55.30
2022-08-11T07:49:54.252Z,57.31
2022-08-11T07:50:56.201Z,57.09
2022-08-11T07:51:54.229Z,58.68
2022-08-11T07:52:54.219Z,58.81
2022-08-11T07:53:58.362Z,58.70
2022-08-11T07:54:55.223Z,60.40
2022-08-11T07:55:54.290Z,59.43
2022-08-11T07:57:09.036Z,58.53
2022-08-11T07:58:16.455Z,59.23
2022-08-11T07:58:57.621Z,57.22
2022-08-11T08:00:03.958Z,57.51
2022-08-11T08:00:55.156Z,57.29
2022-08-11T08:01:54.183Z,59.25
2022-08-11T08:02:54.120Z,55.37
2022-08-11T08:03:54.939Z,54.94
2022-08-11T08:04:54.099Z,55.22
2022-08-11T08:05:54.088Z,53.40
2022-08-11T08:06:54.083Z,54.60
2022-08-11T08:07:54.072Z,54.02
2022-08-11T08:08:54.061Z,54.60
2022-08-11T08:09:54.048Z,54.40
2022-08-11T08:10:54.041Z,54.07
2022-08-11T08:11:54.033Z,55.09
2022-08-11T08:12:54.025Z,55.94
2022-08-11T08:13:54.014Z,55.62
2022-08-11T08:14:54.004Z,55.74
2022-08-11T08:15:53.991Z,54.62
2022-08-11T08:16:53.981Z,54.82
2022-08-11T08:18:20.449Z,56.38
2022-08-11T08:18:54.986Z,53.70
2022-08-11T08:19:53.952Z,53.63
2022-08-11T08:20:53.943Z,53.60
2022-08-11T08:21:53.939Z,53.75
2022-08-11T08:22:55.353Z,54.07
2022-08-11T08:23:56.199Z,54.37
2022-08-11T08:24:53.902Z,54.20
2022-08-11T08:25:53.898Z,53.93
2022-08-11T08:26:53.886Z,53.33
2022-08-11T08:27:53.875Z,53.83
2022-08-11T08:28:53.875Z,53.87
2022-08-11T08:29:53.856Z,53.38
2022-08-11T08:30:53.843Z,53.21
2022-08-11T08:31:53.837Z,52.74
2022-08-11T08:32:53.824Z,53.60
2022-08-11T08:33:53.815Z,54.00
2022-08-11T08:34:53.810Z,54.10
2022-08-11T08:35:54.397Z,53.30
2022-08-11T08:36:53.784Z,53.97
2022-08-11T08:37:53.777Z,55.14
2022-08-11T08:38:53.765Z,53.13
2022-08-11T08:39:53.860Z,52.68
2022-08-11T08:40:55.906Z,51.17
2022-08-11T08:41:53.739Z,49.89
2022-08-11T08:42:53.732Z,49.96
2022-08-11T08:43:53.732Z,48.87
2022-08-11T08:44:53.710Z,48.26
2022-08-11T08:45:53.706Z,46.94
2022-08-11T08:46:53.692Z,46.55
2022-08-11T08:47:53.730Z,46.85
2022-08-11T08:48:53.847Z,47.07
2022-08-11T08:49:53.665Z,48.40
2022-08-11T08:50:53.657Z,49.19
2022-08-11T08:52:00.875Z,47.61
2022-08-11T08:52:54.662Z,47.21
2022-08-11T08:53:56.356Z,45.51
2022-08-11T08:54:53.620Z,45.29
2022-08-11T08:55:53.611Z,47.12
2022-08-11T08:56:53.603Z,44.65
2022-08-11T08:57:53.592Z,46.57
2022-08-11T08:58:53.580Z,48.77
2022-08-11T08:59:53.572Z,46.16
2022-08-11T09:00:53.635Z,44.92
2022-08-11T09:01:53.551Z,44.01
2022-08-11T09:02:53.551Z,44.00
2022-08-11T09:04:07.020Z,42.77
2022-08-11T09:04:53.525Z,43.46
2022-08-11T09:05:53.513Z,42.55
2022-08-11T09:06:53.505Z,42.82
2022-08-11T09:07:53.601Z,42.30
2022-08-11T09:08:53.485Z,46.60
2022-08-11T09:09:53.475Z,44.43
2022-08-11T09:10:53.471Z,45.66
2022-08-11T09:11:53.484Z,48.35
2022-08-11T09:12:53.462Z,45.86
2022-08-11T09:14:05.639Z,43.60
2022-08-11T09:14:53.431Z,42.30
2022-08-11T09:15:56.403Z,41.94
2022-08-11T09:16:53.411Z,41.41
2022-08-11T09:17:53.403Z,41.21
2022-08-11T09:18:53.391Z,40.09
2022-08-11T09:19:56.479Z,40.97
2022-08-11T09:20:53.379Z,41.52
2022-08-11T09:21:53.368Z,39.15
2022-08-11T09:23:29.541Z,37.57
2022-08-11T09:24:15.002Z,38.17
2022-08-11T09:24:54.372Z,38.56
2022-08-11T09:25:53.332Z,39.81
2022-08-11T09:26:53.323Z,42.45
2022-08-11T09:27:53.312Z,44.56
2022-08-11T09:28:53.301Z,43.38
2022-08-11T09:29:53.295Z,43.36
2022-08-11T09:30:53.285Z,43.06
2022-08-11T09:31:53.277Z,42.16
2022-08-11T09:32:53.267Z,41.23
2022-08-11T09:33:53.256Z,41.70
2022-08-11T09:34:54.229Z,40.54
2022-08-11T09:35:53.239Z,40.56
2022-08-11T09:36:53.232Z,40.35
2022-08-11T09:37:55.350Z,40.74
2022-08-11T09:38:53.215Z,40.64
2022-08-11T09:39:53.239Z,41.15
2022-08-11T09:42:01.068Z,41.66
2022-08-11T09:42:23.616Z,42.31
2022-08-11T09:42:54.196Z,42.87
2022-08-11T09:43:53.174Z,41.66
2022-08-11T09:44:53.818Z,41.29
2022-08-11T09:45:53.147Z,41.78
2022-08-11T09:46:53.142Z,41.07
2022-08-11T09:47:53.130Z,41.58
2022-08-11T09:48:53.123Z,43.46
2022-08-11T09:49:53.122Z,42.69
2022-08-11T09:50:53.104Z,42.96
2022-08-11T09:52:02.040Z,40.94
2022-08-11T09:53:35.222Z,39.59
2022-08-11T09:54:03.631Z,40.35
2022-08-11T09:54:53.067Z,36.66
2022-08-11T09:55:53.059Z,37.11
2022-08-11T09:56:53.055Z,37.34
2022-08-11T09:57:55.151Z,36.85
2022-08-11T09:58:53.035Z,37.86
2022-08-11T09:59:53.027Z,38.99
2022-08-11T10:00:54.064Z,37.48
2022-08-11T10:01:53.009Z,37.66
2022-08-11T10:02:53.258Z,37.03
2022-08-11T10:03:52.991Z,36.02
2022-08-11T10:04:52.983Z,36.41
2022-08-11T10:05:52.974Z,36.49
2022-08-11T10:06:54.151Z,35.32
2022-08-11T10:07:52.954Z,34.52
2022-08-11T10:08:52.945Z,35.38
2022-08-11T10:09:52.936Z,36.12
2022-08-11T10:10:52.926Z,40.56
2022-08-11T10:11:58.103Z,39.89
2022-08-11T10:12:52.930Z,39.11
2022-08-11T10:14:33.202Z,39.34
2022-08-11T10:14:53.913Z,37.54
2022-08-11T10:16:02.370Z,36.45
2022-08-11T10:16:53.901Z,37.54
2022-08-11T10:17:52.864Z,37.97
2022-08-11T10:18:53.502Z,39.91
2022-08-11T10:20:04.281Z,36.99
2022-08-11T10:20:52.842Z,35.69
2022-08-11T10:21:52.835Z,34.37
2022-08-11T10:22:52.827Z,33.65
2022-08-11T10:24:01.122Z,33.45
2022-08-11T10:24:53.861Z,32.64
2022-08-11T10:25:52.799Z,33.13
2022-08-11T10:26:53.661Z,35.16
2022-08-11T10:28:30.371Z,34.99
2022-08-11T10:29:12.011Z,36.21
2022-08-11T10:29:53.781Z,37.97
2022-08-11T10:30:52.756Z,40.33
2022-08-11T10:31:57.987Z,41.52
2022-08-11T10:32:58.832Z,40.56
2022-08-11T10:33:59.219Z,37.17
2022-08-11T10:34:54.644Z,37.78
2022-08-11T10:35:52.711Z,36.46
2022-08-11T10:36:52.706Z,38.65
2022-08-11T10:38:08.719Z,38.40
2022-08-11T10:38:53.707Z,39.59
2022-08-11T10:39:52.732Z,40.22
2022-08-11T10:40:52.668Z,41.57
2022-08-11T10:42:08.719Z,40.96
2022-08-11T10:42:57.830Z,41.68
2022-08-11T10:44:01.689Z,43.09
2022-08-11T10:44:53.657Z,44.19
2022-08-11T10:45:52.630Z,44.05
2022-08-11T10:46:52.615Z,41.60
2022-08-11T10:47:52.609Z,40.97
2022-08-11T10:48:52.599Z,40.15
2022-08-11T10:49:52.587Z,39.73
2022-08-11T10:50:52.580Z,38.83
2022-08-11T10:51:53.858Z,38.91
2022-08-11T10:52:52.564Z,38.07
2022-08-11T10:53:52.552Z,37.42
2022-08-11T10:54:52.549Z,36.62
2022-08-11T10:55:52.593Z,35.53
2022-08-11T10:56:52.527Z,35.49
2022-08-11T10:58:04.920Z,34.09
2022-08-11T10:58:53.530Z,36.32
2022-08-11T10:59:52.502Z,36.14
2022-08-11T11:00:52.517Z,35.35
2022-08-11T11:01:52.482Z,37.05
2022-08-11T11:03:16.734Z,38.07
2022-08-11T11:03:53.485Z,37.99
2022-08-11T11:04:52.457Z,37.71
2022-08-11T11:06:28.902Z,39.20
2022-08-11T11:06:53.461Z,37.89
2022-08-11T11:07:52.432Z,37.95
2022-08-11T11:08:52.569Z,35.80
2022-08-11T11:09:52.415Z,35.43
2022-08-11T11:10:52.407Z,36.87
2022-08-11T11:11:52.398Z,36.66
2022-08-11T11:12:52.388Z,37.62
2022-08-11T11:13:53.274Z,37.23
2022-08-11T11:14:58.129Z,35.74
2022-08-11T11:15:53.386Z,35.51
2022-08-11T11:16:52.357Z,34.93
2022-08-11T11:17:52.344Z,37.99
2022-08-11T11:19:00.561Z,39.14
2022-08-11T11:19:53.657Z,40.50
2022-08-11T11:20:52.391Z,41.72
2022-08-11T11:21:52.313Z,41.27
2022-08-11T11:22:52.302Z,39.03
2022-08-11T11:23:52.295Z,40.70
2022-08-11T11:24:52.288Z,38.72
2022-08-11T11:25:56.785Z,39.38
2022-08-11T11:26:52.266Z,38.05
2022-08-11T11:27:52.259Z,36.31
2022-08-11T11:28:52.251Z,34.50
2022-08-11T11:29:52.243Z,33.98
2022-08-11T11:30:52.235Z,34.74
2022-08-11T11:31:52.227Z,34.11
2022-08-11T11:32:52.216Z,33.41
2022-08-11T11:34:12.384Z,34.01
2022-08-11T11:34:54.098Z,34.61
2022-08-11T11:35:52.194Z,33.94
2022-08-11T11:36:52.185Z,34.84
2022-08-11T11:38:04.595Z,36.54
2022-08-11T11:38:53.192Z,37.05
2022-08-11T11:39:52.266Z,36.18
2022-08-11T11:40:52.148Z,36.50
2022-08-11T11:41:52.146Z,38.05
2022-08-11T11:42:52.134Z,37.05
2022-08-11T11:43:52.123Z,36.23
2022-08-11T11:44:55.619Z,36.13
2022-08-11T11:45:52.110Z,35.88
2022-08-11T11:46:52.096Z,35.69
2022-08-11T11:47:52.087Z,34.22
2022-08-11T11:48:52.080Z,36.37
2022-08-11T11:49:52.070Z,37.73
2022-08-11T11:50:53.732Z,38.18
2022-08-11T11:51:52.059Z,38.89
2022-08-11T11:52:52.043Z,37.66
2022-08-11T11:53:52.033Z,36.04
2022-08-11T11:54:52.033Z,36.35
2022-08-11T11:55:52.019Z,36.70
2022-08-11T11:56:52.005Z,37.50
2022-08-11T11:57:58.948Z,36.68
2022-08-11T11:58:53.011Z,36.74
2022-08-11T11:59:51.983Z,36.82
2022-08-11T12:00:51.975Z,35.36
2022-08-11T12:01:52.694Z,37.21
2022-08-11T12:02:51.994Z,34.83
2022-08-11T12:03:51.952Z,35.27
2022-08-11T12:04:51.939Z,35.30
2022-08-11T12:05:51.932Z,35.12
2022-08-11T12:06:51.925Z,34.69
2022-08-11T12:07:56.851Z,34.93
2022-08-11T12:08:52.923Z,34.63
2022-08-11T12:09:51.898Z,35.59
2022-08-11T12:10:51.889Z,32.71
2022-08-11T12:11:51.881Z,32.48
2022-08-11T12:12:51.873Z,32.25
2022-08-11T12:13:51.869Z,30.97
2022-08-11T12:14:51.852Z,31.93
2022-08-11T12:16:31.010Z,30.37
2022-08-11T12:16:52.864Z,30.87
2022-08-11T12:17:52.886Z,31.91
2022-08-11T12:18:51.894Z,34.11
2022-08-11T12:19:51.813Z,33.62
2022-08-11T12:20:51.809Z,33.75
2022-08-11T12:21:51.798Z,34.24
2022-08-11T12:22:52.810Z,34.42
2022-08-11T12:23:51.781Z,33.59
2022-08-11T12:24:51.775Z,31.98
2022-08-11T12:26:10.079Z,31.75
2022-08-11T12:27:15.137Z,31.23
2022-08-11T12:27:52.768Z,29.74
2022-08-11T12:28:51.739Z,29.21
2022-08-11T12:29:55.488Z,28.70
2022-08-11T12:30:54.141Z,28.69
2022-08-11T12:32:25.768Z,28.68
2022-08-11T12:32:51.710Z,28.73
2022-08-11T12:33:51.702Z,30.91
2022-08-11T12:35:22.877Z,31.75
2022-08-11T12:36:00.630Z,32.15
2022-08-11T12:36:52.699Z,32.91
2022-08-11T12:37:51.668Z,30.63
2022-08-11T12:38:51.782Z,30.34
2022-08-11T12:45:12.134Z,29.45
2022-08-11T12:45:22.109Z,32.45
2022-08-11T12:47:08.087Z,32.56
2022-08-11T12:47:16.386Z,32.35
2022-08-11T12:48:57.524Z,31.40
2022-08-11T12:49:17.389Z,32.59
2022-08-11T12:50:23.079Z,32.89
2022-08-11T12:51:17.369Z,32.18
2022-08-11T12:52:16.347Z,31.68
2022-08-11T12:53:16.333Z,31.98
2022-08-11T12:54:16.324Z,31.47
2022-08-11T12:55:16.317Z,31.95
2022-08-11T12:56:16.310Z,30.96
2022-08-11T12:57:16.302Z,31.09
2022-08-11T12:58:17.321Z,31.79
2022-08-11T12:59:16.288Z,32.81
2022-08-11T13:00:16.279Z,33.31
2022-08-11T13:01:16.373Z,34.89
2022-08-11T13:18:18.758Z,34.50
2022-08-11T13:18:20.170Z,34.94
2022-08-11T13:19:49.628Z,34.88
2022-08-11T13:20:20.160Z,35.86
2022-08-11T13:22:12.243Z,36.95
2022-08-11T13:22:20.134Z,36.80
2022-08-11T13:51:36.807Z,33.72
2022-08-11T13:51:38.207Z,28.62
2022-08-11T14:15:48.128Z,27.44
2022-08-11T14:15:49.538Z,26.60
2022-08-11T14:16:49.526Z,26.72
2022-08-11T14:57:57.297Z,27.25
2022-08-11T14:57:58.974Z,29.04
2022-08-11T15:03:18.835Z,28.13
2022-08-11T15:03:27.979Z,27.86
2022-08-11T15:04:35.326Z,28.77
2022-08-11T15:05:21.250Z,31.20
2022-08-11T15:06:20.222Z,31.73
2022-08-11T15:07:20.213Z,33.08
2022-08-11T15:08:20.205Z,35.12
2022-08-11T15:09:20.201Z,36.45
2022-08-11T15:50:27.552Z,39.67
2022-08-11T15:50:28.964Z,30.50
2022-08-11T15:52:20.904Z,29.91
2022-08-11T15:52:28.950Z,30.48
2022-08-11T15:59:41.722Z,30.78
2022-08-11T15:59:41.871Z,30.07
2022-08-11T16:00:37.510Z,31.40
2022-08-11T16:09:29.057Z,31.50
2022-08-11T16:09:47.098Z,34.06
2022-08-11T16:10:35.930Z,33.36
2022-08-11T16:13:47.491Z,32.75
2022-08-11T16:13:48.866Z,31.49
2022-08-11T16:14:48.860Z,30.78
2022-08-11T16:15:48.850Z,30.99
2022-08-11T16:16:48.846Z,31.83
2022-08-11T16:17:48.834Z,32.09
2022-08-11T16:18:51.750Z,31.64
2022-08-11T16:19:48.814Z,32.94
2022-08-11T16:20:48.808Z,32.77
2022-08-11T16:21:48.798Z,33.57
2022-08-11T16:23:02.230Z,33.98
2022-08-11T16:23:48.784Z,34.47
2022-08-11T16:27:01.508Z,32.95
2022-08-11T16:27:03.581Z,32.87
2022-08-11T16:27:11.493Z,33.38
2022-08-11T16:27:49.772Z,34.35
2022-08-11T16:28:48.894Z,33.94
2022-08-11T16:29:48.733Z,32.65
2022-08-11T16:30:48.724Z,32.82
2022-08-11T16:31:48.715Z,32.46
2022-08-11T16:32:48.712Z,33.23
2022-08-11T16:33:51.633Z,32.22
2022-08-11T16:34:48.689Z,31.62
2022-08-11T16:35:48.683Z,31.99
2022-08-11T16:36:48.673Z,32.15
2022-08-11T16:37:48.665Z,34.10
2022-08-11T16:38:48.657Z,34.86
2022-08-11T16:39:50.715Z,33.83
2022-08-11T16:40:48.638Z,32.72
2022-08-11T16:41:48.631Z,32.98
2022-08-11T16:43:08.810Z,30.92
2022-08-11T16:43:49.631Z,31.02
2022-08-11T16:44:48.604Z,30.89
2022-08-11T16:45:48.592Z,30.38
2022-08-11T16:46:48.621Z,29.98
2022-08-11T16:48:02.785Z,30.29
2022-08-11T16:48:48.574Z,30.48
2022-08-11T16:49:52.461Z,30.79
2022-08-11T16:50:48.551Z,30.71